| time (UTC) | temp C | wind direction | speed KPH | gust KPH | rain 1hr cm | rain 24hr cm | rain mn cm | humidity % | barometer mb |
| 20260906204526 | 26 | 200 | 6.4 | 11.3 | 0.00 | 0.00 | 0.00 | 65 | 1013.1 |
| 20260906203027 | 25 | 231 | 9.7 | 14.5 | 0.00 | 0.00 | 0.00 | 67 | 1012.9 |
| 20260906201535 | 25 | 227 | 9.7 | 14.5 | 0.00 | 0.00 | 0.00 | 67 | 1013.1 |
| 20260906200016 | 25 | 238 | 11.3 | 20.9 | 0.00 | 0.00 | 0.00 | 70 | 1013.5 |
| 20260906194515 | 24 | 264 | 16.1 | 22.5 | 0.00 | 0.00 | 0.00 | 72 | 1013.9 |
| 20260906193021 | 23 | 264 | 16.1 | 22.5 | 0.00 | 0.00 | 0.00 | 73 | 1014.1 |
| 20260906191513 | 23 | 274 | 14.5 | 19.3 | 0.00 | 0.00 | 0.00 | 77 | 1014.3 |
| 20260906190055 | 23 | 293 | 9.7 | 19.3 | 0.00 | 0.00 | 0.00 | 78 | 1014.2 |
| 20260906184555 | 23 | 278 | 8.0 | 17.7 | 0.00 | 0.00 | 0.00 | 76 | 1014.1 |
| 20260906183037 | 23 | 252 | 17.7 | 22.5 | 0.00 | 0.00 | 0.00 | 76 | 1014.2 |
| 20260906181539 | 23 | 243 | 20.9 | 30.6 | 0.00 | 0.00 | 0.00 | 75 | 1014.3 |
| 20260906180017 | 23 | 245 | 25.7 | 35.4 | 0.00 | 0.00 | 0.00 | 74 | 1013.9 |
| 20260906174522 | 24 | 259 | 25.7 | 33.8 | 0.00 | 0.00 | 0.00 | 74 | 1013.8 |
| 20260906173116 | 25 | 240 | 19.3 | 37.0 | 0.00 | 0.00 | 0.00 | 78 | 1013.7 |
| 20260906171557 | 25 | 233 | 27.4 | 40.2 | 0.00 | 0.00 | 0.00 | 79 | 1014.2 |
| 20260906170100 | 25 | 267 | 30.6 | 45.1 | 0.00 | 0.00 | 0.00 | 84 | 1014.2 |
| 20260906164537 | 25 | 220 | 19.3 | 29.0 | 0.00 | 0.00 | 0.00 | 89 | 1014.5 |
| 20260906163036 | 25 | 205 | 17.7 | 27.4 | 0.00 | 0.00 | 0.00 | 90 | 1014.6 |
| 20260906161527 | 25 | 156 | 16.1 | 29.0 | 0.00 | 0.00 | 0.00 | 90 | 1014.5 |
| 20260906160022 | 25 | 170 | 16.1 | 33.8 | 0.00 | 0.00 | 0.00 | 90 | 1014.3 |
| 20260906154525 | 25 | 159 | 17.7 | 29.0 | 0.00 | 0.00 | 0.00 | 90 | 1014.1 |
| 20260906153032 | 25 | 155 | 14.5 | 27.4 | 0.00 | 0.00 | 0.00 | 90 | 1014.1 |
| 20260906151518 | 25 | 123 | 11.3 | 25.7 | 0.00 | 0.00 | 0.00 | 90 | 1013.4 |
| 20260906150022 | 25 | 150 | 16.1 | 24.1 | 0.00 | 0.00 | 0.00 | 90 | 1013.8 |
| 20260906144513 | 24 | 74 | 12.9 | 17.7 | 0.00 | 0.00 | 0.00 | 90 | 1013.5 |
| 20260906143017 | 23 | 98 | 8.0 | 14.5 | 0.00 | 0.00 | 0.00 | 91 | 1013.5 |
| 20260906141553 | 23 | 99 | 3.2 | 8.0 | 0.00 | 0.00 | 0.00 | 91 | 1013.7 |
| 20260906140047 | 22 | 84 | 1.6 | 4.8 | 0.00 | 0.00 | 0.00 | 92 | 1013.5 |
| 20260906134542 | 22 | 55 | 3.2 | 4.8 | 0.00 | 0.00 | 0.00 | 92 | 1013.6 |
| 20260906133037 | 21 | 70 | 0.0 | 0.0 | 0.00 | 0.00 | 0.00 | 92 | 1013.6 |
| 20260906131531 | 21 | 307 | 6.4 | 12.9 | 0.00 | 0.00 | 0.00 | 92 | 1013.8 |
| 20260906130031 | 21 | 340 | 0.0 | 4.8 | 0.00 | 0.00 | 0.00 | 93 | 1013.5 |
| 20260906124524 | 21 | 30 | 3.2 | 6.4 | 0.00 | 0.00 | 0.00 | 93 | 1013.2 |
| 20260906123037 | 20 | 43 | 4.8 | 6.4 | 0.00 | 0.00 | 0.00 | 92 | 1012.9 |
| 20260906121522 | 21 | 58 | 1.6 | 4.8 | 0.00 | 0.00 | 0.00 | 93 | 1012.7 |
| 20260906120021 | 21 | 58 | 4.8 | 8.0 | 0.00 | 0.00 | 0.00 | 92 | 1012.4 |
| 20260906114503 | 21 | 86 | 0.0 | 8.0 | 0.00 | 0.03 | 0.00 | 92 | 1012.4 |
| 20260906113003 | 21 | 89 | 4.8 | 11.3 | 0.00 | 0.03 | 0.00 | 92 | 1012.3 |
| 20260906111551 | 21 | 84 | 8.0 | 11.3 | 0.00 | 0.03 | 0.00 | 92 | 1012.4 |
| 20260906110055 | 21 | 89 | 4.8 | 9.7 | 0.00 | 0.03 | 0.00 | 92 | 1012.5 |
| 20260906104552 | 21 | 83 | 3.2 | 12.9 | 0.00 | 0.03 | 0.00 | 92 | 1012.6 |
| 20260906103102 | 21 | 80 | 4.8 | 6.4 | 0.00 | 0.03 | 0.00 | 92 | 1012.7 |
| 20260906101548 | 21 | 63 | 4.8 | 8.0 | 0.00 | 0.03 | 0.00 | 91 | 1012.7 |
| 20260906100047 | 21 | 63 | 0.0 | 0.0 | 0.00 | 0.03 | 0.00 | 90 | 1012.8 |
| 20260906094547 | 21 | 124 | 0.0 | 0.0 | 0.00 | 0.03 | 0.00 | 90 | 1013.1 |
| 20260906093050 | 21 | 90 | 0.0 | 4.8 | 0.00 | 0.03 | 0.00 | 89 | 1013.0 |
| 20260906091528 | 21 | 77 | 0.0 | 6.4 | 0.00 | 0.03 | 0.00 | 90 | 1013.2 |
| 20260906090041 | 21 | 81 | 0.0 | 1.6 | 0.00 | 0.03 | 0.00 | 90 | 1013.1 |
| 20260906084514 | 21 | 63 | 0.0 | 6.4 | 0.00 | 0.03 | 0.00 | 90 | 1013.0 |
| 20260906083014 | 21 | 56 | 4.8 | 6.4 | 0.00 | 0.03 | 0.00 | 90 | 1013.0 |
| 20260906081512 | 21 | 76 | 3.2 | 8.0 | 0.00 | 0.03 | 0.00 | 89 | 1012.8 |
| 20260906080010 | 21 | 75 | 0.0 | 6.4 | 0.00 | 0.03 | 0.00 | 90 | 1012.7 |
| 20260906074509 | 21 | 61 | 6.4 | 8.0 | 0.00 | 0.03 | 0.00 | 90 | 1012.6 |
| 20260906073008 | 21 | 60 | 3.2 | 6.4 | 0.00 | 0.03 | 0.00 | 90 | 1012.6 |
| 20260906071507 | 21 | 88 | 0.0 | 6.4 | 0.00 | 0.03 | 0.00 | 89 | 1012.4 |
| 20260906070004 | 21 | 93 | 4.8 | 8.0 | 0.00 | 0.03 | 0.00 | 88 | 1012.3 |
| 20260906064549 | 22 | 105 | 0.0 | 6.4 | 0.00 | 0.03 | 0.00 | 86 | 1012.3 |
| 20260906063050 | 22 | 116 | 4.8 | 11.3 | 0.00 | 0.03 | 0.00 | 85 | 1012.3 |
| 20260906061545 | 22 | 140 | 4.8 | 11.3 | 0.00 | 0.03 | 0.00 | 84 | 1012.4 |
| 20260906060042 | 22 | 143 | 4.8 | 11.3 | 0.00 | 0.03 | 0.00 | 84 | 1012.3 |
| 20260906054541 | 22 | 108 | 9.7 | 16.1 | 0.00 | 0.03 | 0.03 | 83 | 1012.1 |
| 20260906053039 | 23 | 117 | 6.4 | 14.5 | 0.00 | 0.03 | 0.03 | 82 | 1012.4 |
| 20260906051554 | 23 | 89 | 12.9 | 16.1 | 0.00 | 0.03 | 0.03 | 83 | 1012.2 |
| 20260906050042 | 23 | 79 | 8.0 | 14.5 | 0.00 | 0.03 | 0.03 | 82 | 1012.4 |
| 20260906044526 | 23 | 86 | 6.4 | 9.7 | 0.00 | 0.03 | 0.03 | 84 | 1012.3 |
| 20260906043026 | 23 | 86 | 8.0 | 9.7 | 0.00 | 0.03 | 0.03 | 83 | 1012.4 |
| 20260906041525 | 23 | 58 | 4.8 | 9.7 | 0.00 | 0.03 | 0.03 | 83 | 1012.5 |
| 20260906040033 | 23 | 58 | 11.3 | 16.1 | 0.00 | 0.03 | 0.03 | 81 | 1012.1 |
| 20260906034532 | 24 | 58 | 11.3 | 14.5 | 0.00 | 0.03 | 0.03 | 79 | 1011.9 |
| 20260906033023 | 23 | 40 | 14.5 | 19.3 | 0.00 | 0.03 | 0.03 | 81 | 1011.7 |
| 20260906031534 | 23 | 19 | 12.9 | 17.7 | 0.00 | 0.03 | 0.03 | 81 | 1011.5 |
| 20260906030022 | 25 | 99 | 6.4 | 8.0 | 0.00 | 0.03 | 0.03 | 77 | 1011.5 |
| 20260906024510 | 25 | 147 | 4.8 | 9.7 | 0.00 | 0.03 | 0.03 | 78 | 1011.8 |
| 20260906023009 | 25 | 234 | 0.0 | 6.4 | 0.00 | 0.03 | 0.03 | 76 | 1012.3 |
| 20260906021509 | 25 | 209 | 4.8 | 8.0 | 0.00 | 0.03 | 0.03 | 74 | 1012.1 |
| 20260906020014 | 26 | 261 | 1.6 | 4.8 | 0.00 | 0.03 | 0.03 | 69 | 1012.3 |
| 20260906014508 | 26 | 279 | 1.6 | 4.8 | 0.00 | 0.03 | 0.03 | 72 | 1012.2 |
| 20260906013007 | 26 | 154 | 0.0 | 1.6 | 0.00 | 0.03 | 0.03 | 71 | 1012.0 |
| 20260906011506 | 26 | 157 | 0.0 | 4.8 | 0.00 | 0.03 | 0.03 | 70 | 1012.2 |
| 20260906010006 | 27 | 44 | 4.8 | 6.4 | 0.00 | 0.03 | 0.03 | 67 | 1012.1 |
| 20260906004548 | 27 | 274 | 0.0 | 0.0 | 0.00 | 0.03 | 0.03 | 64 | 1012.5 |
| 20260906003048 | 28 | 274 | 1.6 | 4.8 | 0.00 | 0.03 | 0.03 | 61 | 1012.8 |
| 20260906001530 | 29 | 238 | 0.0 | 0.0 | 0.00 | 0.03 | 0.03 | 59 | 1012.4 |
| 20260906000029 | 29 | 142 | 0.0 | 0.0 | 0.00 | 0.03 | 0.03 | 58 | 1012.3 |
| 20260905234511 | 29 | 118 | 0.0 | 4.8 | 0.00 | 0.03 | 0.03 | 59 | 1012.2 |
| 20260905233011 | 29 | 113 | 3.2 | 11.3 | 0.00 | 0.03 | 0.03 | 58 | 1012.0 |
| 20260905231555 | 30 | 103 | 9.7 | 20.9 | 0.00 | 0.03 | 0.03 | 55 | 1011.5 |
| 20260905230059 | 30 | 83 | 8.0 | 24.1 | 0.00 | 0.03 | 0.03 | 54 | 1011.1 |
| 20260905224534 | 31 | 82 | 16.1 | 27.4 | 0.00 | 0.03 | 0.03 | 52 | 1010.5 |
| 20260905223038 | 31 | 105 | 19.3 | 38.6 | 0.00 | 0.03 | 0.03 | 52 | 1010.1 |
| 20260905221515 | 31 | 101 | 20.9 | 32.2 | 0.00 | 0.03 | 0.03 | 52 | 1010.2 |
| 20260905220013 | 32 | 86 | 19.3 | 25.7 | 0.00 | 0.03 | 0.03 | 52 | 1010.6 |
| 20260905214558 | 32 | 80 | 16.1 | 24.1 | 0.00 | 0.03 | 0.03 | 53 | 1010.7 |
| 20260905213055 | 32 | 127 | 14.5 | 24.1 | 0.00 | 0.03 | 0.03 | 53 | 1010.9 |
| 20260905211538 | 31 | 121 | 9.7 | 27.4 | 0.00 | 0.03 | 0.03 | 54 | 1011.0 |
| 20260905210046 | 31 | 89 | 19.3 | 30.6 | 0.00 | 0.03 | 0.03 | 55 | 1011.1 |